createdAt,value
2019-01-21T00:02:35.889Z,32.27
2019-01-21T00:05:42.717Z,33.37
2019-01-21T00:08:48.422Z,31.70
2019-01-21T00:11:54.131Z,33.13
2019-01-21T00:14:59.839Z,30.63
2019-01-21T00:18:06.219Z,30.00
2019-01-21T00:21:11.968Z,34.60
2019-01-21T00:24:17.732Z,34.17
2019-01-21T00:27:24.517Z,35.97
2019-01-21T00:30:30.239Z,34.97
2019-01-21T00:33:35.943Z,33.10
2019-01-21T00:36:41.648Z,32.30
2019-01-21T00:39:47.356Z,32.27
2019-01-21T00:42:53.176Z,34.83
2019-01-21T00:45:58.889Z,31.40
2019-01-21T00:49:04.717Z,30.47
2019-01-21T00:52:10.445Z,31.37
2019-01-21T00:55:16.348Z,29.13
2019-01-21T00:58:22.265Z,31.07
2019-01-21T01:01:28.054Z,32.80
2019-01-21T01:04:33.752Z,32.53
2019-01-21T01:07:40.389Z,33.47
2019-01-21T01:10:46.092Z,33.43
2019-01-21T01:13:51.767Z,33.73
2019-01-21T01:16:57.501Z,32.90
2019-01-21T01:20:03.327Z,33.43
2019-01-21T01:23:09.158Z,34.30
2019-01-21T01:26:14.872Z,36.23
2019-01-21T01:29:20.601Z,33.43
2019-01-21T01:32:26.311Z,34.60
2019-01-21T01:35:33.121Z,34.83
2019-01-21T01:38:38.839Z,35.33
2019-01-21T01:41:44.575Z,36.17
2019-01-21T01:44:50.513Z,42.63
2019-01-21T01:48:03.108Z,39.00
2019-01-21T01:51:08.974Z,31.67
2019-01-21T01:54:14.820Z,32.93
2019-01-21T01:57:20.726Z,30.53
2019-01-21T02:00:26.683Z,32.70
2019-01-21T02:03:32.376Z,30.27
2019-01-21T02:06:38.165Z,29.37
2019-01-21T02:09:43.983Z,30.33
2019-01-21T02:12:49.888Z,27.17
2019-01-21T02:15:56.694Z,27.03
2019-01-21T02:19:02.780Z,25.87
2019-01-21T02:22:09.399Z,25.23
2019-01-21T02:25:15.635Z,24.00
2019-01-21T02:28:27.757Z,24.70
2019-01-21T02:31:58.430Z,24.70
2019-01-21T02:35:29.256Z,23.77
2019-01-21T02:39:20.419Z,22.93
2019-01-21T02:42:42.717Z,23.27
2019-01-21T02:47:02.565Z,23.97
2019-01-21T02:50:41.547Z,22.17
2019-01-21T02:54:27.907Z,24.43
2019-01-21T02:58:07.576Z,24.10
2019-01-21T03:01:51.678Z,24.47
2019-01-21T03:05:34.827Z,23.40
2019-01-21T03:09:27.281Z,21.80
2019-01-21T03:13:25.864Z,19.33
2019-01-21T03:17:07.742Z,18.07
2019-01-21T03:20:48.625Z,16.77
2019-01-21T03:24:56.167Z,17.73
2019-01-21T03:28:37.248Z,17.10
2019-01-21T03:32:24.629Z,15.13
2019-01-21T03:36:02.471Z,16.53
2019-01-21T03:39:46.107Z,15.93
2019-01-21T03:42:59.131Z,16.57
2019-01-21T03:46:21.201Z,16.07
2019-01-21T03:49:44.437Z,19.80
2019-01-21T03:53:26.862Z,19.63
2019-01-21T03:57:08.889Z,19.23
2019-01-21T04:00:23.373Z,19.80
2019-01-21T04:04:05.641Z,20.10
2019-01-21T04:07:42.651Z,20.67
2019-01-21T04:11:26.524Z,18.17
2019-01-21T04:14:56.483Z,17.77
2019-01-21T04:18:48.148Z,16.93
2019-01-21T04:22:21.126Z,16.77
2019-01-21T04:26:19.567Z,17.03
2019-01-21T04:30:13.965Z,16.73
2019-01-21T04:34:15.490Z,18.37
2019-01-21T04:38:05.801Z,18.43
2019-01-21T04:41:21.576Z,18.10
2019-01-21T04:44:54.373Z,21.97
2019-01-21T04:48:21.621Z,22.50
2019-01-21T04:52:10.259Z,19.37
2019-01-21T04:55:44.637Z,20.13
2019-01-21T04:59:37.290Z,21.20
2019-01-21T05:03:54.306Z,23.73
2019-01-21T05:07:26.577Z,22.87
2019-01-21T05:11:20.822Z,22.43
2019-01-21T05:15:07.227Z,20.53
2019-01-21T05:18:43.520Z,21.70
2019-01-21T05:22:19.303Z,21.73
2019-01-21T05:25:52.603Z,28.93
2019-01-21T05:29:34.894Z,27.70
2019-01-21T05:33:02.294Z,27.07
2019-01-21T05:36:44.608Z,26.00
2019-01-21T05:40:17.326Z,23.90
2019-01-21T05:44:05.859Z,21.03
2019-01-21T05:47:57.008Z,18.60
2019-01-21T05:51:40.943Z,18.50
2019-01-21T05:55:21.244Z,18.97
2019-01-21T05:59:13.479Z,18.43
2019-01-21T06:03:11.961Z,20.77
2019-01-21T06:07:07.483Z,23.10
2019-01-21T06:10:28.284Z,45.57
2019-01-21T06:14:32.770Z,126.97
2019-01-21T06:17:56.066Z,69.20
2019-01-21T06:21:42.134Z,35.50
2019-01-21T06:25:44.647Z,35.00
2019-01-21T06:29:28.207Z,27.13
2019-01-21T06:33:06.406Z,26.23
2019-01-21T06:36:58.879Z,24.60
2019-01-21T06:40:50.121Z,20.17
2019-01-21T06:44:31.553Z,22.00
2019-01-21T06:48:23.944Z,17.97
2019-01-21T06:51:54.953Z,16.03
2019-01-21T06:55:53.735Z,16.20
2019-01-21T06:59:23.881Z,18.33
2019-01-21T07:02:55.369Z,19.57
2019-01-21T07:06:40.584Z,21.17
2019-01-21T07:10:09.884Z,22.87
2019-01-21T07:13:49.096Z,21.53
2019-01-21T07:17:04.474Z,21.27
2019-01-21T07:20:56.994Z,20.27
2019-01-21T07:24:43.250Z,19.60
2019-01-21T07:28:23.243Z,20.83
2019-01-21T07:31:35.202Z,21.77
2019-01-21T07:35:26.297Z,24.43
2019-01-21T07:38:56.312Z,26.20
2019-01-21T07:42:31.491Z,25.80
2019-01-21T07:46:14.328Z,26.40
2019-01-21T07:50:03.943Z,22.60
2019-01-21T07:53:42.442Z,22.87
2019-01-21T07:57:41.826Z,24.53
2019-01-21T08:01:27.249Z,24.03
2019-01-21T08:05:24.763Z,25.80
2019-01-21T08:09:10.131Z,27.87
2019-01-21T08:12:53.769Z,28.43
2019-01-21T08:16:33.176Z,28.17
2019-01-21T08:20:17.238Z,27.30
2019-01-21T08:23:58.431Z,26.83
2019-01-21T08:27:38.171Z,28.33
2019-01-21T08:31:14.501Z,27.80
2019-01-21T08:34:38.934Z,28.77
2019-01-21T08:38:40.743Z,34.73
2019-01-21T08:42:39.374Z,52.77
2019-01-21T08:46:29.503Z,35.13
2019-01-21T08:50:01.525Z,38.13
2019-01-21T08:53:23.345Z,39.07
2019-01-21T08:56:59.492Z,37.13
2019-01-21T09:01:04.163Z,42.00
2019-01-21T09:04:56.401Z,45.17
2019-01-21T09:08:37.935Z,42.50
2019-01-21T09:12:33.483Z,42.80
2019-01-21T09:16:11.784Z,45.60
2019-01-21T09:19:49.000Z,49.20
2019-01-21T09:23:38.746Z,44.00
2019-01-21T09:27:12.469Z,42.17
2019-01-21T09:30:37.297Z,35.03
2019-01-21T09:34:23.009Z,32.67
2019-01-21T09:38:33.634Z,30.83
2019-01-21T09:41:59.237Z,25.63
2019-01-21T09:46:13.125Z,25.23
2019-01-21T09:49:16.933Z,25.23
2019-01-21T09:52:24.032Z,28.07
2019-01-21T09:55:30.165Z,24.63
2019-01-21T09:58:36.082Z,25.53
2019-01-21T10:01:42.780Z,23.00
2019-01-21T10:05:03.644Z,21.50
2019-01-21T10:08:33.952Z,21.83
2019-01-21T10:12:35.415Z,20.70
2019-01-21T10:16:00.585Z,20.53
2019-01-21T10:19:50.735Z,25.17
2019-01-21T10:23:14.426Z,24.37
2019-01-21T10:27:06.115Z,23.03
2019-01-21T10:30:43.907Z,24.83
2019-01-21T10:34:34.039Z,24.50
2019-01-21T10:38:28.428Z,24.53
2019-01-21T10:42:04.161Z,21.40
2019-01-21T10:45:48.307Z,21.57
2019-01-21T10:49:20.191Z,21.90
2019-01-21T10:53:09.784Z,23.10
2019-01-21T10:56:39.721Z,22.10
2019-01-21T11:00:29.568Z,23.80
2019-01-21T11:04:20.656Z,21.80
2019-01-21T11:08:09.292Z,22.70
2019-01-21T11:11:43.267Z,21.87
2019-01-21T11:15:12.959Z,23.20
2019-01-21T11:19:01.315Z,24.00
2019-01-21T11:22:23.379Z,22.03
2019-01-21T11:26:05.802Z,22.27
2019-01-21T11:29:58.033Z,18.57
2019-01-21T11:33:29.830Z,19.20
2019-01-21T11:36:48.163Z,17.30
2019-01-21T11:40:20.904Z,17.90
2019-01-21T11:44:06.101Z,18.00
2019-01-21T11:47:45.872Z,16.67
2019-01-21T11:51:44.310Z,14.87
2019-01-21T11:55:22.607Z,16.50
2019-01-21T11:58:59.490Z,16.80
2019-01-21T12:02:41.960Z,88.73
2019-01-21T12:06:18.994Z,44.47
2019-01-21T12:09:48.518Z,19.17
2019-01-21T12:13:23.610Z,18.17
2019-01-21T12:17:11.696Z,18.07
2019-01-21T12:21:09.941Z,18.87
2019-01-21T12:24:30.714Z,15.20
2019-01-21T12:28:10.341Z,16.33
2019-01-21T12:31:41.715Z,16.67
2019-01-21T12:35:21.314Z,16.40
2019-01-21T12:39:05.574Z,16.40
2019-01-21T12:42:26.131Z,15.13
2019-01-21T12:45:56.649Z,16.17
2019-01-21T12:49:20.933Z,17.60
2019-01-21T12:52:37.767Z,16.97
2019-01-21T12:56:08.785Z,19.30
2019-01-21T12:59:43.056Z,21.27
2019-01-21T13:03:44.557Z,32.97
2019-01-21T13:07:27.058Z,22.63
2019-01-21T13:11:41.077Z,39.93
2019-01-21T13:15:40.398Z,22.63
2019-01-21T13:19:21.559Z,20.73
2019-01-21T13:23:10.879Z,22.33
2019-01-21T13:26:47.452Z,24.77
2019-01-21T13:30:34.472Z,27.80
2019-01-21T13:34:21.489Z,20.37
2019-01-21T13:37:53.090Z,21.97
2019-01-21T13:41:51.807Z,23.00
2019-01-21T13:45:48.786Z,21.03
2019-01-21T13:49:25.622Z,19.53
2019-01-21T13:53:25.952Z,19.33
2019-01-21T13:56:43.572Z,21.03
2019-01-21T14:00:20.795Z,20.47
2019-01-21T14:04:05.618Z,21.33
2019-01-21T14:07:50.594Z,24.43
2019-01-21T14:11:46.556Z,22.57
2019-01-21T14:15:31.344Z,24.97
2019-01-21T14:19:26.177Z,25.93
2019-01-21T14:23:15.798Z,23.97
2019-01-21T14:27:13.986Z,23.33
2019-01-21T14:30:50.083Z,39.40
2019-01-21T14:34:26.459Z,40.17
2019-01-21T14:38:08.566Z,64.00
2019-01-21T14:42:10.859Z,42.63
2019-01-21T14:46:01.946Z,41.47
2019-01-21T14:49:46.474Z,39.23
2019-01-21T14:53:30.757Z,37.03
2019-01-21T14:57:16.692Z,32.90
2019-01-21T15:00:56.960Z,29.63
2019-01-21T15:04:38.065Z,30.60
2019-01-21T15:07:57.236Z,32.47
2019-01-21T15:11:28.697Z,39.80
2019-01-21T15:15:22.557Z,31.60
2019-01-21T15:19:01.411Z,48.60
2019-01-21T15:22:42.176Z,31.00
2019-01-21T15:26:28.146Z,34.93
2019-01-21T15:29:59.859Z,37.20
2019-01-21T15:33:49.445Z,38.73
2019-01-21T15:37:35.855Z,52.27
2019-01-21T15:41:22.183Z,45.73
2019-01-21T15:45:05.740Z,51.03
2019-01-21T15:48:40.705Z,46.50
2019-01-21T15:52:26.386Z,38.87
2019-01-21T15:55:52.521Z,37.80
2019-01-21T15:59:33.844Z,41.47
2019-01-21T16:03:07.745Z,33.10
2019-01-21T16:06:34.912Z,34.07
2019-01-21T16:10:07.457Z,34.30
2019-01-21T16:13:52.405Z,37.97
2019-01-21T16:17:32.641Z,37.40
2019-01-21T16:21:18.746Z,37.50
2019-01-21T16:25:04.921Z,33.93
2019-01-21T16:28:47.967Z,35.03
2019-01-21T16:32:31.568Z,32.67
2019-01-21T16:36:12.868Z,40.97
2019-01-21T16:40:15.129Z,39.07
2019-01-21T16:43:20.926Z,39.93
2019-01-21T16:46:26.650Z,35.30
2019-01-21T16:49:32.373Z,35.60
2019-01-21T16:52:38.231Z,40.17
2019-01-21T16:55:45.505Z,37.70
2019-01-21T16:58:51.319Z,35.57
2019-01-21T17:01:57.128Z,37.80
2019-01-21T17:05:02.942Z,40.27
2019-01-21T17:08:08.919Z,40.83
2019-01-21T17:11:14.768Z,37.53
2019-01-21T17:14:20.538Z,43.47
2019-01-21T17:17:26.228Z,35.77
2019-01-21T17:20:32.048Z,37.57
2019-01-21T17:23:37.775Z,39.07
2019-01-21T17:26:43.625Z,35.63
2019-01-21T17:29:49.357Z,36.37
2019-01-21T17:32:55.070Z,37.17
2019-01-21T17:36:00.895Z,37.63
2019-01-21T17:39:09.257Z,31.00
2019-01-21T17:42:15.384Z,44.30
2019-01-21T17:45:21.361Z,39.20
2019-01-21T17:48:27.091Z,38.33
2019-01-21T17:51:35.413Z,39.17
2019-01-21T17:54:41.276Z,34.93
2019-01-21T17:57:47.221Z,41.00
2019-01-21T18:00:52.986Z,35.20
2019-01-21T18:03:58.761Z,34.60
2019-01-21T18:07:04.605Z,33.53
2019-01-21T18:10:13.669Z,35.50
2019-01-21T18:13:19.505Z,33.90
2019-01-21T18:16:26.240Z,34.33
2019-01-21T18:19:31.956Z,33.30
2019-01-21T18:22:37.657Z,30.20
2019-01-21T18:25:43.382Z,29.97
2019-01-21T18:28:49.106Z,32.20
2019-01-21T18:31:54.951Z,32.57
2019-01-21T18:35:00.749Z,25.93
2019-01-21T18:38:07.249Z,26.43
2019-01-21T18:41:13.168Z,25.30
2019-01-21T18:44:18.903Z,23.93
2019-01-21T18:47:24.714Z,22.23
2019-01-21T18:50:33.750Z,22.80
2019-01-21T18:53:39.563Z,22.67
2019-01-21T18:56:45.277Z,22.57
2019-01-21T18:59:50.997Z,20.70
2019-01-21T19:02:57.803Z,18.53
2019-01-21T19:06:03.560Z,17.97
2019-01-21T19:09:10.130Z,19.10
2019-01-21T19:12:16.569Z,20.47
2019-01-21T19:15:40.625Z,21.00
2019-01-21T19:18:46.340Z,18.80
2019-01-21T19:21:53.756Z,19.83
2019-01-21T19:24:59.597Z,21.57
2019-01-21T19:28:05.433Z,17.63
2019-01-21T19:31:11.477Z,19.30
2019-01-21T19:34:18.193Z,19.00
2019-01-21T19:37:24.187Z,19.67
2019-01-21T19:40:30.151Z,20.60
2019-01-21T19:43:35.851Z,18.73
2019-01-21T19:46:44.293Z,15.93
2019-01-21T19:49:50.327Z,18.47
2019-01-21T19:52:56.259Z,18.20
2019-01-21T19:56:01.977Z,18.27
2019-01-21T19:59:07.778Z,17.63
2019-01-21T20:02:13.483Z,18.27
2019-01-21T20:05:19.304Z,18.17
2019-01-21T20:08:26.389Z,18.07
2019-01-21T20:11:34.990Z,17.30
2019-01-21T20:14:39.856Z,18.37
2019-01-21T20:17:46.225Z,18.50
2019-01-21T20:20:52.110Z,16.50
2019-01-21T20:23:57.839Z,17.13
2019-01-21T20:27:03.701Z,19.93
2019-01-21T20:30:11.620Z,19.20
2019-01-21T20:33:17.461Z,18.77
2019-01-21T20:36:23.304Z,18.13
2019-01-21T20:39:29.136Z,17.20
2019-01-21T20:42:35.032Z,17.77
2019-01-21T20:45:40.970Z,20.07
2019-01-21T20:48:46.691Z,28.67
2019-01-21T20:51:52.518Z,17.33
2019-01-21T20:54:58.273Z,18.63
2019-01-21T20:58:04.532Z,19.47
2019-01-21T21:01:10.246Z,14.83
2019-01-21T21:04:16.098Z,18.30
2019-01-21T21:07:21.830Z,18.93
2019-01-21T21:10:27.584Z,11.70
2019-01-21T21:13:33.311Z,14.13
2019-01-21T21:16:39.185Z,16.13
2019-01-21T21:19:44.923Z,17.30
2019-01-21T21:22:50.673Z,14.03
2019-01-21T21:25:56.367Z,19.17
2019-01-21T21:29:02.096Z,18.07
2019-01-21T21:32:07.852Z,18.27
2019-01-21T21:35:13.773Z,19.30
2019-01-21T21:38:19.683Z,18.07
2019-01-21T21:41:25.586Z,16.07
2019-01-21T21:44:31.304Z,17.57
2019-01-21T21:47:37.055Z,17.87
2019-01-21T21:50:43.148Z,17.10
2019-01-21T21:53:48.899Z,14.20
2019-01-21T21:56:54.926Z,15.33
2019-01-21T22:00:01.759Z,16.73
2019-01-21T22:03:07.995Z,16.80
2019-01-21T22:06:13.966Z,17.63
2019-01-21T22:09:19.721Z,16.63
2019-01-21T22:12:25.478Z,16.57
2019-01-21T22:15:31.251Z,14.10
2019-01-21T22:18:37.127Z,17.03
2019-01-21T22:21:42.867Z,17.27
2019-01-21T22:24:48.977Z,17.47
2019-01-21T22:27:54.708Z,10.57
2019-01-21T22:31:00.560Z,18.03
2019-01-21T22:34:06.504Z,16.00
2019-01-21T22:37:12.228Z,15.93
2019-01-21T22:40:19.845Z,18.20
2019-01-21T22:43:25.704Z,15.67
2019-01-21T22:46:31.424Z,16.30
2019-01-21T22:49:37.171Z,16.20
2019-01-21T22:52:42.971Z,16.23
2019-01-21T22:55:48.849Z,16.20
2019-01-21T22:58:54.574Z,11.93
2019-01-21T23:02:00.554Z,15.23
2019-01-21T23:05:07.757Z,16.40
2019-01-21T23:08:13.588Z,15.50
2019-01-21T23:11:19.320Z,18.37
2019-01-21T23:14:25.141Z,14.90
2019-01-21T23:17:30.978Z,16.17
2019-01-21T23:20:36.783Z,16.00
2019-01-21T23:23:42.968Z,16.47
2019-01-21T23:26:48.714Z,15.43
2019-01-21T23:29:54.439Z,17.03
2019-01-21T23:33:01.342Z,17.30
2019-01-21T23:36:07.254Z,15.53
2019-01-21T23:39:12.977Z,17.30
2019-01-21T23:42:19.243Z,16.07
2019-01-21T23:45:25.061Z,16.47
2019-01-21T23:48:30.761Z,16.40
2019-01-21T23:51:36.513Z,16.87
2019-01-21T23:54:42.227Z,18.87
2019-01-21T23:57:48.224Z,19.37
